Detalhes do Voo

Voltar

 DETALHES DO VÔO

Piloto: GLD1134 Wellinghton L. Aeronave: Carenado PC12_v1.3 Gold Distância: 485NM
Origem: SBMG Destino: SBGL Duração: 2.43
Validação: Validado Tipo: Regular Matrícula: PR-GPB
ZFW: 6618 Block Fuel/Init FOB 873/0 Combustível em Voo 873
Passageiros: 0 Carga: 0 Alternativo: SBGR
Hora da Decolagem: 1908 Velocidade de Cruzeiro: N0230 Nível de Voo: F230
Regra Visual: IFR ICAO da Aeronave: PC12 Unidade de Peso: Kg
Data: 23/08/2020 Observação: GOLD ACARS Rede: VATSIM
Acidentou?: Não Comentários do Validador: Pontuação do Voo 120.12

 ROTA

ROTA DCT LON UZ10 MUPAG UZ42 ESORU DCT
REMARKS OPR/GOLD VIRTUAL AIRLINES PER/A RMK/FROM SBMG RMK/PIC GLD1134

 PENALIDADES DO VOO

Para entender como cada item é pontuado, consulte as regras de avaliação.

Nenhuma penalidade registrada para este voo.

 ANÁLISE DO POUSO

Vento durante o pouso: 122º/1 kt Proa durante o pouso: 126
V/S do Pouso: -169 ft/min IAS do Pouso: 102 kt
Força G no pouso: 0.9808 G Bank no pouso: -0.73
Pitch no Pouso -1.56 Flaps no Pouso 5461
Nav Lights ON Landing Lights ON
Beacon Lights ON Strobe Lights ON

 MAPA DO VOO

 PERFIL VERTICAL DO VOO

 EVENTOS PRINCIPAIS DO VOO

DATAEVENTOIASALTITUDE
2020-08-23 22:08:27 GOLD ACARS VERSION 1.1.0.000
2020-08-23 22:08:28 BOARDING01824
2020-08-23 22:08:34 NAV LIGHTS ON01824
2020-08-23 22:08:35 BCN LIGHTS ON01824
2020-08-23 22:11:33 STARTING ENGINE 101824
2020-08-23 22:17:04 REFUEL01769
2020-08-23 22:25:09 TAXI LIGHTS ON01769
2020-08-23 22:25:35 TAXI TO THE RWY01770
2020-08-23 22:29:33 STB LIGHTS ON01794
2020-08-23 22:29:34 LND LIGHTS ON01794
2020-08-23 22:29:34 TAXI LIGHTS OFF01794
2020-08-23 22:29:39 FLAP 33%01794
2020-08-23 22:35:21 CLIMBING1091793
2020-08-23 22:36:01 GEAR UP1272529
2020-08-23 22:36:09 FLAP 0%1302665
2020-08-23 22:36:38 AP ENGAGED1573603
2020-08-23 22:40:25 LND LIGHTS OFF1819985
2020-08-23 22:51:43 CRUISE14622968
2020-08-24 00:00:17 DESCEND18323001
2020-08-24 00:11:08 LND LIGHTS ON1919990
2020-08-24 00:19:37 FLAP 33%1295401
2020-08-24 00:19:42 CLIMBING1245420
2020-08-24 00:19:44 CRUISE1195438
2020-08-24 00:20:21 DESCEND945357
2020-08-24 00:23:30 GEAR DOWN1222559
2020-08-24 00:28:03 LANDED - VS: -169 ft/min 10213
2020-08-24 00:28:16 AT THE GATE2912
2020-08-24 00:28:40 TAXI LIGHTS ON112
2020-08-24 00:28:41 LND LIGHTS OFF112
2020-08-24 00:28:41 STB LIGHTS OFF112
2020-08-24 00:28:56 FLAP 0%112
2020-08-24 00:33:42 TAXI LIGHTS OFF023
2020-08-24 00:33:50 STOPPING ENGINE 1023
2020-08-24 00:34:21 NAV LIGHTS OFF023
2020-08-24 00:34:22 BCN LIGHTS OFF023
2020-08-24 00:34:29 FLIGHT FINISHED023

 DADOS DO ACARS

DATA IAS GS ALTITUDE COMBUSTÍVEL USADO OAT FASE DO VOO
2020-08-23 22:10:28 0 0 1824 0 20 BOARDING
2020-08-23 22:11:28 0 0 1824 0 20 BOARDING
2020-08-23 22:12:29 0 0 1824 0 20 BOARDING
2020-08-23 22:13:29 0 0 1769 0 20 BOARDING
2020-08-23 22:14:29 0 0 1769 0 20 BOARDING
2020-08-23 22:15:30 0 0 1769 0 20 BOARDING
2020-08-23 22:16:30 0 0 1769 0 20 BOARDING
2020-08-23 22:17:31 0 0 1769 0 20 BOARDING
2020-08-23 22:18:31 0 0 1769 0 20 BOARDING
2020-08-23 22:19:31 0 0 1769 0 20 BOARDING
2020-08-23 22:20:32 0 0 1769 0 20 BOARDING
2020-08-23 22:21:32 0 0 1769 0 20 BOARDING
2020-08-23 22:22:33 0 0 1769 1 20 BOARDING
2020-08-23 22:23:33 0 0 1769 1 20 BOARDING
2020-08-23 22:24:33 0 0 1769 1 20 BOARDING
2020-08-23 22:25:34 0 3 1770 1 20 BOARDING
2020-08-23 22:26:34 4 9 1797 2 20 BOARDING
2020-08-23 22:27:34 13 19 1805 2 20 TAXI TO THE RWY
2020-08-23 22:28:35 0 0 1794 2 20 TAXI TO THE RWY
2020-08-23 22:29:35 0 0 1794 2 20 TAXI TO THE RWY
2020-08-23 22:30:36 0 0 1794 3 20 TAXI TO THE RWY
2020-08-23 22:31:36 0 0 1794 3 20 TAXI TO THE RWY
2020-08-23 22:32:36 0 0 1794 4 20 TAXI TO THE RWY
2020-08-23 22:33:37 10 15 1792 4 20 TAXI TO THE RWY
2020-08-23 22:34:37 9 0 1757 5 20 TAXI TO THE RWY
2020-08-23 22:35:38 126 122 2057 7 20 TAXI TO THE RWY
2020-08-23 22:36:38 157 157 3579 12 17 CLIMBING
2020-08-23 22:37:38 183 189 5365 16 13 CLIMBING
2020-08-23 22:38:39 179 193 7150 21 9 CLIMBING
2020-08-23 22:39:39 175 200 8947 25 5 CLIMBING
2020-08-23 22:40:39 181 216 10320 29 2 CLIMBING
2020-08-23 22:41:40 179 222 11716 33 -1 CLIMBING
2020-08-23 22:42:40 176 227 13101 37 -4 CLIMBING
2020-08-23 22:43:41 172 230 14455 41 -7 CLIMBING
2020-08-23 22:44:41 168 233 15764 45 -10 CLIMBING
2020-08-23 22:45:41 164 235 17020 49 -12 CLIMBING
2020-08-23 22:46:42 159 248 18201 52 -15 CLIMBING
2020-08-23 22:47:42 155 251 19268 56 -17 CLIMBING
2020-08-23 22:48:43 152 253 20284 59 -20 CLIMBING
2020-08-23 22:49:43 149 256 21258 62 -22 CLIMBING
2020-08-23 22:50:43 147 253 22163 65 -24 CLIMBING
2020-08-23 22:51:44 147 255 22970 68 -26 CLIMBING
2020-08-23 22:52:44 166 284 22997 71 -26 CRUISE
2020-08-23 22:53:44 175 295 23003 74 -26 CRUISE
2020-08-23 22:54:45 178 300 23004 77 -26 CRUISE
2020-08-23 22:55:45 180 302 23004 80 -26 CRUISE
2020-08-23 22:56:46 181 303 23005 83 -26 CRUISE
2020-08-23 22:57:46 181 304 23006 87 -26 CRUISE
2020-08-23 22:58:46 181 304 23007 90 -26 CRUISE
2020-08-23 22:59:47 181 304 22997 93 -26 CRUISE
2020-08-23 23:00:47 180 302 22998 96 -26 CRUISE
2020-08-23 23:01:47 180 302 22999 99 -26 CRUISE
2020-08-23 23:02:48 180 302 23000 102 -26 CRUISE
2020-08-23 23:03:48 181 302 23000 105 -26 CRUISE
2020-08-23 23:04:49 181 302 23002 108 -26 CRUISE
2020-08-23 23:05:49 181 302 23003 111 -27 CRUISE
2020-08-23 23:06:49 181 302 23004 114 -27 CRUISE
2020-08-23 23:07:50 182 302 23005 118 -27 CRUISE
2020-08-23 23:08:50 182 302 23006 121 -27 CRUISE
2020-08-23 23:09:51 181 303 23007 124 -27 CRUISE
2020-08-23 23:10:51 181 302 22997 127 -27 CRUISE
2020-08-23 23:11:51 178 302 22997 130 -27 CRUISE
2020-08-23 23:12:52 180 304 22998 133 -27 CRUISE
2020-08-23 23:13:52 180 305 22999 136 -28 CRUISE
2020-08-23 23:14:53 181 306 23001 139 -28 CRUISE
2020-08-23 23:15:53 181 306 23002 142 -28 CRUISE
2020-08-23 23:16:53 181 307 23003 145 -28 CRUISE
2020-08-23 23:17:54 182 307 23004 149 -28 CRUISE
2020-08-23 23:18:54 182 307 23005 152 -28 CRUISE
2020-08-23 23:19:55 182 308 23007 155 -28 CRUISE
2020-08-23 23:20:55 182 308 23008 158 -28 CRUISE
2020-08-23 23:21:55 182 307 22996 161 -30 CRUISE
2020-08-23 23:22:56 181 306 22993 164 -30 CRUISE
2020-08-23 23:23:56 181 305 22995 167 -29 CRUISE
2020-08-23 23:24:57 181 306 22999 171 -29 CRUISE
2020-08-23 23:25:57 181 307 23001 174 -29 CRUISE
2020-08-23 23:26:57 182 307 23002 177 -29 CRUISE
2020-08-23 23:27:58 182 308 23003 180 -29 CRUISE
2020-08-23 23:28:58 182 308 23004 183 -29 CRUISE
2020-08-23 23:29:59 183 309 23006 186 -29 CRUISE
2020-08-23 23:30:59 183 309 23007 189 -29 CRUISE
2020-08-23 23:32:00 183 330 22999 192 -29 CRUISE
2020-08-23 23:33:00 181 328 22995 196 -29 CRUISE
2020-08-23 23:34:00 181 327 22995 199 -29 CRUISE
2020-08-23 23:35:01 181 318 23000 202 -29 CRUISE
2020-08-23 23:36:01 181 319 23001 205 -29 CRUISE
2020-08-23 23:37:02 182 319 23003 208 -29 CRUISE
2020-08-23 23:38:02 182 319 23004 211 -29 CRUISE
2020-08-23 23:39:02 182 320 23006 214 -29 CRUISE
2020-08-23 23:40:03 183 268 23010 217 -29 CRUISE
2020-08-23 23:41:03 183 273 23008 221 -29 CRUISE
2020-08-23 23:42:04 183 274 23008 224 -29 CRUISE
2020-08-23 23:43:04 183 287 23010 227 -29 CRUISE
2020-08-23 23:44:04 183 322 22997 230 -29 CRUISE
2020-08-23 23:45:05 182 321 22998 233 -29 CRUISE
2020-08-23 23:46:05 182 321 23000 236 -29 CRUISE
2020-08-23 23:47:05 182 321 23001 239 -29 CRUISE
2020-08-23 23:48:06 182 322 23003 243 -29 CRUISE
2020-08-23 23:49:06 183 322 23004 246 -29 CRUISE
2020-08-23 23:50:07 183 322 23006 249 -29 CRUISE
2020-08-23 23:51:07 183 322 23007 252 -29 CRUISE
2020-08-23 23:52:07 183 323 23009 255 -29 CRUISE
2020-08-23 23:53:08 184 323 23010 258 -29 CRUISE
2020-08-23 23:54:08 184 323 23012 261 -29 CRUISE
2020-08-23 23:55:08 183 322 23000 265 -29 CRUISE
2020-08-23 23:56:09 183 321 23002 268 -29 CRUISE
2020-08-23 23:57:09 183 322 23005 271 -29 CRUISE
2020-08-23 23:58:10 183 322 23007 274 -28 CRUISE
2020-08-23 23:59:10 183 322 23008 277 -27 CRUISE
2020-08-24 00:00:10 183 323 23008 280 -27 CRUISE
2020-08-24 00:01:11 192 328 21933 283 -25 CRUISE
2020-08-24 00:02:11 194 318 20792 285 -25 DESCEND
2020-08-24 00:03:11 195 310 19678 287 -23 DESCEND
2020-08-24 00:04:12 197 302 18436 289 -20 DESCEND
2020-08-24 00:05:12 192 285 17183 291 -18 DESCEND
2020-08-24 00:06:13 193 274 15886 293 -15 DESCEND
2020-08-24 00:07:13 193 264 14690 295 -13 DESCEND
2020-08-24 00:08:13 194 255 13500 298 -10 DESCEND
2020-08-24 00:09:14 196 247 12284 300 -7 DESCEND
2020-08-24 00:10:14 191 233 11065 302 -5 DESCEND
2020-08-24 00:11:15 191 224 9849 304 -2 DESCEND
2020-08-24 00:12:15 194 219 8639 306 0 DESCEND
2020-08-24 00:13:15 195 216 7427 309 2 DESCEND
2020-08-24 00:14:16 198 215 6497 311 4 DESCEND
2020-08-24 00:15:16 180 195 6297 313 5 DESCEND
2020-08-24 00:16:17 176 191 6299 316 5 DESCEND
2020-08-24 00:17:17 180 206 6203 319 5 DESCEND
2020-08-24 00:18:17 178 198 5593 321 6 DESCEND
2020-08-24 00:19:18 139 144 5401 322 7 DESCEND
2020-08-24 00:20:18 94 93 5375 323 7 DESCEND
2020-08-24 00:21:19 112 113 4636 324 8 CRUISE
2020-08-24 00:22:19 113 113 3791 325 10 DESCEND
2020-08-24 00:23:19 121 121 2791 326 12 DESCEND
2020-08-24 00:24:20 106 106 1708 328 14 DESCEND
2020-08-24 00:25:20 102 101 1681 329 14 DESCEND
2020-08-24 00:26:20 117 116 1074 331 15 DESCEND
2020-08-24 00:27:21 118 116 438 333 17 DESCEND
2020-08-24 00:28:21 28 27 12 334 18 DESCEND
2020-08-24 00:29:22 6 5 12 335 18 AT THE GATE
2020-08-24 00:30:22 6 5 14 335 18 AT THE GATE
2020-08-24 00:31:22 20 19 13 335 18 AT THE GATE
2020-08-24 00:32:23 16 15 16 336 18 AT THE GATE
2020-08-24 00:33:23 11 12 25 336 17 AT THE GATE
2020-08-24 00:34:24 0 0 23 336 17 AT THE GATE